Terminal Aerodrome Forecast
Issued by NWS Cleveland, OH

Home | Current Version | Previous Version | Graphics & Text | Print | Product List | Glossary On
Versions: 1 2 3 4 5 6 7 8 9 10 11 12 13 14 15 16 17 18 19 20 21 22 23 24 25 26 27
000
FTUS41 KCLE 152320
TAFCLE
TAF
KCLE 152320Z 1600/1706 23007KT 6SM -RA BR BKN020 OVC060
      TEMPO 1600/1603 3SM -RA BR BKN015
     FM160300 29007KT 1 1/2SM RA BR OVC007
     FM160800 33010KT 5SM BR OVC007
     FM161500 33013KT P6SM OVC015
     FM162300 32010KT P6SM BKN020=

USA.gov is the U.S. government's official web portal to all federal, state and local government web resources and services.